Terminal Aerodrome Forecast
Issued by NWS Wilmington, OH

Current Version | Previous Version | Graphics & Text | Print | Product List | Glossary On
Versions: 1 2 3 4 5 6 7 8 9 10 11 12 13 14 15 16 17 18 19 20 21
000
FTUS41 KILN 191700
TAFCMH
TAF
KCMH 191726Z 1918/2018 28005KT P6SM BKN250
     FM192300 23005KT P6SM SCT250
     FM201100 21010KT P6SM BKN100
     FM201500 22012G18KT P6SM BKN080=

USA.gov is the U.S. government's official web portal to all federal, state and local government web resources and services.